FYKT

Keetmanshoop Airport

Keetmanshoop, Namibia
METAR FYKT 241200Z 23008KT CAVOK 27/01 Q1015
Observed Flight Rules
Feb-24 @ 12:00 UTC (25 minutes ago) Visual Flight Rules
Wind Visibility Clouds
230° at 8 knots 10,000+ meters
  • Clear skies
Temperatures Readings
Current 27°C / 81°F
Dewpoint 1°C / 34°F
Humidity 18%
Altimeter 29.97" Hg
Pressure 1015 hPa
Elevation 1061
METAR FYKT 241200Z 23008KT CAVOK 27/01 Q1015
Observed Flight Rules
Feb-24 @ 12:00 UTC
(25 minutes ago)
VFR
Wind Visibility
230° at 8 knots 10,000+ meters
Clouds
  • Clear skies
Temperature Dewpoint
27°C / 81°F 1°C / 34°F
Humidity Altimeter Pressure
18% 29.97" Hg 1015 hPa